sensor_id;sensor_type;location;lat;lon;timestamp;P1;durP1;ratioP1;P2;durP2;ratioP2
23472;SDS011;11909;52.516;13.564;2023-04-01T00:00:16;3.60;;;2.45;;
23472;SDS011;11909;52.516;13.564;2023-04-01T00:02:44;4.55;;;3.03;;
23472;SDS011;11909;52.516;13.564;2023-04-01T00:05:13;4.65;;;2.75;;
23472;SDS011;11909;52.516;13.564;2023-04-01T00:07:42;4.80;;;2.95;;
23472;SDS011;11909;52.516;13.564;2023-04-01T00:10:12;3.65;;;2.78;;
23472;SDS011;11909;52.516;13.564;2023-04-01T00:12:43;3.65;;;2.70;;
23472;SDS011;11909;52.516;13.564;2023-04-01T00:15:11;7.18;;;3.20;;
23472;SDS011;11909;52.516;13.564;2023-04-01T00:17:38;4.95;;;2.95;;
23472;SDS011;11909;52.516;13.564;2023-04-01T00:20:07;3.53;;;2.85;;
23472;SDS011;11909;52.516;13.564;2023-04-01T00:22:35;4.13;;;2.90;;
23472;SDS011;11909;52.516;13.564;2023-04-01T00:25:03;3.97;;;2.92;;
23472;SDS011;11909;52.516;13.564;2023-04-01T00:27:33;8.20;;;3.42;;
23472;SDS011;11909;52.516;13.564;2023-04-01T00:30:01;2.92;;;2.63;;
23472;SDS011;11909;52.516;13.564;2023-04-01T00:32:29;4.32;;;3.45;;
23472;SDS011;11909;52.516;13.564;2023-04-01T00:34:57;4.45;;;3.30;;
23472;SDS011;11909;52.516;13.564;2023-04-01T00:37:26;5.18;;;3.20;;
23472;SDS011;11909;52.516;13.564;2023-04-01T00:39:54;4.15;;;2.67;;
23472;SDS011;11909;52.516;13.564;2023-04-01T00:42:22;5.82;;;3.38;;
23472;SDS011;11909;52.516;13.564;2023-04-01T00:44:51;4.70;;;3.45;;
23472;SDS011;11909;52.516;13.564;2023-04-01T00:47:20;6.43;;;3.83;;
23472;SDS011;11909;52.516;13.564;2023-04-01T00:49:49;5.55;;;3.10;;
23472;SDS011;11909;52.516;13.564;2023-04-01T00:52:21;6.15;;;3.35;;
23472;SDS011;11909;52.516;13.564;2023-04-01T00:54:57;4.45;;;2.80;;
23472;SDS011;11909;52.516;13.564;2023-04-01T00:57:29;4.30;;;3.20;;
23472;SDS011;11909;52.516;13.564;2023-04-01T01:00:03;6.40;;;3.03;;
23472;SDS011;11909;52.516;13.564;2023-04-01T01:02:33;4.07;;;3.10;;
23472;SDS011;11909;52.516;13.564;2023-04-01T01:05:02;10.43;;;4.25;;
23472;SDS011;11909;52.516;13.564;2023-04-01T01:07:31;4.78;;;4.07;;
23472;SDS011;11909;52.516;13.564;2023-04-01T01:10:03;6.65;;;4.28;;
23472;SDS011;11909;52.516;13.564;2023-04-01T01:12:39;7.28;;;3.90;;
23472;SDS011;11909;52.516;13.564;2023-04-01T01:15:14;6.47;;;4.65;;
23472;SDS011;11909;52.516;13.564;2023-04-01T01:17:49;6.78;;;4.20;;
23472;SDS011;11909;52.516;13.564;2023-04-01T01:26:54;6.50;;;5.03;;
23472;SDS011;11909;52.516;13.564;2023-04-01T01:29:43;5.85;;;4.40;;
23472;SDS011;11909;52.516;13.564;2023-04-01T01:32:20;6.80;;;5.00;;
23472;SDS011;11909;52.516;13.564;2023-04-01T01:35:20;7.18;;;5.03;;
23472;SDS011;11909;52.516;13.564;2023-04-01T01:37:51;6.13;;;4.55;;
23472;SDS011;11909;52.516;13.564;2023-04-01T01:40:24;10.05;;;5.35;;
23472;SDS011;11909;52.516;13.564;2023-04-01T01:45:25;6.13;;;4.55;;
23472;SDS011;11909;52.516;13.564;2023-04-01T01:48:08;9.45;;;5.00;;
23472;SDS011;11909;52.516;13.564;2023-04-01T01:50:39;6.93;;;4.35;;
23472;SDS011;11909;52.516;13.564;2023-04-01T01:53:09;6.70;;;4.43;;
23472;SDS011;11909;52.516;13.564;2023-04-01T01:55:39;6.78;;;5.22;;
23472;SDS011;11909;52.516;13.564;2023-04-01T01:58:09;6.80;;;5.28;;
23472;SDS011;11909;52.516;13.564;2023-04-01T02:00:41;9.57;;;5.40;;
23472;SDS011;11909;52.516;13.564;2023-04-01T02:03:13;9.30;;;5.45;;
23472;SDS011;11909;52.516;13.564;2023-04-01T02:05:44;8.55;;;5.10;;
23472;SDS011;11909;52.516;13.564;2023-04-01T02:08:13;8.60;;;5.70;;
23472;SDS011;11909;52.516;13.564;2023-04-01T02:10:45;6.50;;;5.18;;
23472;SDS011;11909;52.516;13.564;2023-04-01T02:13:23;7.90;;;5.80;;
23472;SDS011;11909;52.516;13.564;2023-04-01T02:15:56;7.90;;;5.30;;
23472;SDS011;11909;52.516;13.564;2023-04-01T02:18:28;8.13;;;5.40;;
23472;SDS011;11909;52.516;13.564;2023-04-01T02:20:58;7.63;;;4.78;;
23472;SDS011;11909;52.516;13.564;2023-04-01T02:23:27;9.20;;;5.53;;
23472;SDS011;11909;52.516;13.564;2023-04-01T02:25:55;6.35;;;5.07;;
23472;SDS011;11909;52.516;13.564;2023-04-01T02:28:23;10.68;;;5.90;;
23472;SDS011;11909;52.516;13.564;2023-04-01T02:30:52;6.75;;;4.93;;
23472;SDS011;11909;52.516;13.564;2023-04-01T02:33:20;8.90;;;5.38;;
23472;SDS011;11909;52.516;13.564;2023-04-01T02:35:48;7.75;;;5.18;;
23472;SDS011;11909;52.516;13.564;2023-04-01T02:38:18;9.45;;;5.57;;
23472;SDS011;11909;52.516;13.564;2023-04-01T02:40:46;7.57;;;5.15;;
23472;SDS011;11909;52.516;13.564;2023-04-01T02:43:16;12.00;;;5.25;;
23472;SDS011;11909;52.516;13.564;2023-04-01T02:45:45;5.85;;;4.93;;
23472;SDS011;11909;52.516;13.564;2023-04-01T02:48:12;8.23;;;5.82;;
23472;SDS011;11909;52.516;13.564;2023-04-01T02:50:40;6.00;;;4.93;;
23472;SDS011;11909;52.516;13.564;2023-04-01T02:53:08;7.13;;;5.07;;
23472;SDS011;11909;52.516;13.564;2023-04-01T02:55:37;7.13;;;5.32;;
23472;SDS011;11909;52.516;13.564;2023-04-01T02:58:05;6.40;;;5.00;;
23472;SDS011;11909;52.516;13.564;2023-04-01T03:00:33;9.52;;;5.93;;
23472;SDS011;11909;52.516;13.564;2023-04-01T03:03:00;7.63;;;4.95;;
23472;SDS011;11909;52.516;13.564;2023-04-01T03:05:29;8.95;;;5.03;;
23472;SDS011;11909;52.516;13.564;2023-04-01T03:07:57;10.90;;;5.85;;
23472;SDS011;11909;52.516;13.564;2023-04-01T03:10:25;11.70;;;7.32;;
23472;SDS011;11909;52.516;13.564;2023-04-01T03:12:54;9.65;;;6.28;;
23472;SDS011;11909;52.516;13.564;2023-04-01T03:15:22;8.60;;;5.72;;
23472;SDS011;11909;52.516;13.564;2023-04-01T03:17:49;8.57;;;4.90;;
23472;SDS011;11909;52.516;13.564;2023-04-01T03:20:17;7.95;;;5.35;;
23472;SDS011;11909;52.516;13.564;2023-04-01T03:22:45;9.65;;;4.72;;
23472;SDS011;11909;52.516;13.564;2023-04-01T03:25:13;6.28;;;4.50;;
23472;SDS011;11909;52.516;13.564;2023-04-01T03:27:41;9.65;;;4.75;;
23472;SDS011;11909;52.516;13.564;2023-04-01T03:30:10;6.80;;;4.93;;
23472;SDS011;11909;52.516;13.564;2023-04-01T03:32:38;5.53;;;4.60;;
23472;SDS011;11909;52.516;13.564;2023-04-01T03:35:06;9.98;;;5.13;;
23472;SDS011;11909;52.516;13.564;2023-04-01T03:37:35;8.95;;;5.20;;
23472;SDS011;11909;52.516;13.564;2023-04-01T03:40:04;6.60;;;4.80;;
23472;SDS011;11909;52.516;13.564;2023-04-01T03:42:32;10.57;;;5.00;;
23472;SDS011;11909;52.516;13.564;2023-04-01T03:45:01;10.45;;;4.72;;
23472;SDS011;11909;52.516;13.564;2023-04-01T03:47:30;7.90;;;4.93;;
23472;SDS011;11909;52.516;13.564;2023-04-01T03:49:58;7.90;;;5.97;;
23472;SDS011;11909;52.516;13.564;2023-04-01T03:52:26;7.50;;;5.35;;
23472;SDS011;11909;52.516;13.564;2023-04-01T03:54:54;11.05;;;6.78;;
23472;SDS011;11909;52.516;13.564;2023-04-01T03:57:22;8.98;;;5.85;;
23472;SDS011;11909;52.516;13.564;2023-04-01T03:59:49;9.32;;;6.10;;
23472;SDS011;11909;52.516;13.564;2023-04-01T04:02:17;10.73;;;6.28;;
23472;SDS011;11909;52.516;13.564;2023-04-01T04:04:46;14.25;;;6.97;;
23472;SDS011;11909;52.516;13.564;2023-04-01T04:07:14;10.32;;;6.93;;
23472;SDS011;11909;52.516;13.564;2023-04-01T04:09:42;12.57;;;7.70;;
23472;SDS011;11909;52.516;13.564;2023-04-01T04:12:10;9.85;;;7.55;;
23472;SDS011;11909;52.516;13.564;2023-04-01T04:14:38;11.60;;;7.78;;
23472;SDS011;11909;52.516;13.564;2023-04-01T04:17:05;12.07;;;7.45;;
23472;SDS011;11909;52.516;13.564;2023-04-01T04:19:34;9.77;;;6.47;;
23472;SDS011;11909;52.516;13.564;2023-04-01T04:22:03;10.90;;;6.95;;
23472;SDS011;11909;52.516;13.564;2023-04-01T04:24:31;13.30;;;8.40;;
23472;SDS011;11909;52.516;13.564;2023-04-01T04:26:58;9.75;;;6.57;;
23472;SDS011;11909;52.516;13.564;2023-04-01T04:29:26;12.07;;;8.35;;
23472;SDS011;11909;52.516;13.564;2023-04-01T04:31:54;12.98;;;8.68;;
23472;SDS011;11909;52.516;13.564;2023-04-01T04:34:21;10.02;;;7.43;;
23472;SDS011;11909;52.516;13.564;2023-04-01T04:36:49;10.95;;;8.45;;
23472;SDS011;11909;52.516;13.564;2023-04-01T04:39:18;11.50;;;7.72;;
23472;SDS011;11909;52.516;13.564;2023-04-01T04:41:46;12.02;;;8.15;;
23472;SDS011;11909;52.516;13.564;2023-04-01T04:44:14;11.57;;;7.50;;
23472;SDS011;11909;52.516;13.564;2023-04-01T04:46:41;14.00;;;8.20;;
23472;SDS011;11909;52.516;13.564;2023-04-01T04:49:09;12.52;;;8.38;;
23472;SDS011;11909;52.516;13.564;2023-04-01T04:51:37;11.38;;;8.15;;
23472;SDS011;11909;52.516;13.564;2023-04-01T04:54:05;10.98;;;8.38;;
23472;SDS011;11909;52.516;13.564;2023-04-01T04:56:35;10.65;;;7.50;;
23472;SDS011;11909;52.516;13.564;2023-04-01T04:59:02;14.00;;;8.82;;
23472;SDS011;11909;52.516;13.564;2023-04-01T05:01:30;9.77;;;7.57;;
23472;SDS011;11909;52.516;13.564;2023-04-01T05:03:59;9.00;;;7.40;;
23472;SDS011;11909;52.516;13.564;2023-04-01T05:06:27;10.15;;;7.65;;
23472;SDS011;11909;52.516;13.564;2023-04-01T05:08:55;13.27;;;8.00;;
23472;SDS011;11909;52.516;13.564;2023-04-01T05:11:23;12.48;;;7.85;;
23472;SDS011;11909;52.516;13.564;2023-04-01T05:13:53;10.95;;;8.32;;
23472;SDS011;11909;52.516;13.564;2023-04-01T05:16:21;8.10;;;7.22;;
23472;SDS011;11909;52.516;13.564;2023-04-01T05:18:48;12.80;;;7.60;;
23472;SDS011;11909;52.516;13.564;2023-04-01T05:21:16;10.75;;;6.90;;
23472;SDS011;11909;52.516;13.564;2023-04-01T05:23:44;8.52;;;7.60;;
23472;SDS011;11909;52.516;13.564;2023-04-01T05:26:12;13.32;;;8.68;;
23472;SDS011;11909;52.516;13.564;2023-04-01T05:28:41;11.65;;;8.45;;
23472;SDS011;11909;52.516;13.564;2023-04-01T05:31:11;9.52;;;7.15;;
23472;SDS011;11909;52.516;13.564;2023-04-01T05:33:38;12.35;;;8.57;;
23472;SDS011;11909;52.516;13.564;2023-04-01T05:36:07;12.15;;;8.45;;
23472;SDS011;11909;52.516;13.564;2023-04-01T05:38:36;15.30;;;8.65;;
23472;SDS011;11909;52.516;13.564;2023-04-01T05:41:04;12.57;;;8.57;;
23472;SDS011;11909;52.516;13.564;2023-04-01T05:43:32;9.93;;;7.05;;
23472;SDS011;11909;52.516;13.564;2023-04-01T05:45:59;11.88;;;9.05;;
23472;SDS011;11909;52.516;13.564;2023-04-01T05:48:28;9.73;;;6.95;;
23472;SDS011;11909;52.516;13.564;2023-04-01T05:50:56;10.75;;;7.57;;
23472;SDS011;11909;52.516;13.564;2023-04-01T05:53:24;14.57;;;9.05;;
23472;SDS011;11909;52.516;13.564;2023-04-01T05:55:52;10.80;;;8.27;;
23472;SDS011;11909;52.516;13.564;2023-04-01T05:58:19;10.05;;;8.40;;
23472;SDS011;11909;52.516;13.564;2023-04-01T06:00:47;8.65;;;7.55;;
23472;SDS011;11909;52.516;13.564;2023-04-01T06:03:32;19.17;;;8.98;;
23472;SDS011;11909;52.516;13.564;2023-04-01T06:06:00;12.77;;;8.88;;
23472;SDS011;11909;52.516;13.564;2023-04-01T06:08:30;9.40;;;7.38;;
23472;SDS011;11909;52.516;13.564;2023-04-01T06:11:02;16.13;;;8.57;;
23472;SDS011;11909;52.516;13.564;2023-04-01T06:13:42;11.00;;;8.30;;
23472;SDS011;11909;52.516;13.564;2023-04-01T06:16:27;11.48;;;7.93;;
23472;SDS011;11909;52.516;13.564;2023-04-01T06:19:07;12.77;;;7.65;;
23472;SDS011;11909;52.516;13.564;2023-04-01T06:21:51;10.35;;;7.38;;
23472;SDS011;11909;52.516;13.564;2023-04-01T06:24:36;8.32;;;7.05;;
23472;SDS011;11909;52.516;13.564;2023-04-01T06:27:20;6.72;;;5.82;;
23472;SDS011;11909;52.516;13.564;2023-04-01T06:30:06;8.30;;;6.85;;
23472;SDS011;11909;52.516;13.564;2023-04-01T06:32:56;8.40;;;6.18;;
23472;SDS011;11909;52.516;13.564;2023-04-01T06:35:40;10.45;;;7.30;;
23472;SDS011;11909;52.516;13.564;2023-04-01T06:41:19;14.05;;;7.53;;
23472;SDS011;11909;52.516;13.564;2023-04-01T06:44:04;11.30;;;6.57;;
23472;SDS011;11909;52.516;13.564;2023-04-01T06:46:41;8.95;;;6.60;;
23472;SDS011;11909;52.516;13.564;2023-04-01T06:52:12;9.18;;;6.47;;
23472;SDS011;11909;52.516;13.564;2023-04-01T06:54:47;8.60;;;6.25;;
23472;SDS011;11909;52.516;13.564;2023-04-01T06:57:20;10.73;;;7.10;;
23472;SDS011;11909;52.516;13.564;2023-04-01T06:59:55;11.95;;;7.68;;
23472;SDS011;11909;52.516;13.564;2023-04-01T07:02:28;11.05;;;7.85;;
23472;SDS011;11909;52.516;13.564;2023-04-01T07:05:02;10.25;;;7.35;;
23472;SDS011;11909;52.516;13.564;2023-04-01T07:07:35;13.18;;;8.55;;
23472;SDS011;11909;52.516;13.564;2023-04-01T07:10:10;12.23;;;7.53;;
23472;SDS011;11909;52.516;13.564;2023-04-01T07:12:43;11.25;;;7.35;;
23472;SDS011;11909;52.516;13.564;2023-04-01T07:15:17;11.82;;;8.32;;
23472;SDS011;11909;52.516;13.564;2023-04-01T07:17:48;9.85;;;7.70;;
23472;SDS011;11909;52.516;13.564;2023-04-01T07:20:22;13.00;;;8.43;;
23472;SDS011;11909;52.516;13.564;2023-04-01T07:22:56;13.40;;;7.75;;
23472;SDS011;11909;52.516;13.564;2023-04-01T07:25:27;10.07;;;7.63;;
23472;SDS011;11909;52.516;13.564;2023-04-01T07:28:00;9.20;;;7.78;;
23472;SDS011;11909;52.516;13.564;2023-04-01T07:30:32;11.25;;;7.60;;
23472;SDS011;11909;52.516;13.564;2023-04-01T07:33:07;9.80;;;7.68;;
23472;SDS011;11909;52.516;13.564;2023-04-01T07:35:43;8.48;;;6.63;;
23472;SDS011;11909;52.516;13.564;2023-04-01T07:38:21;8.95;;;7.80;;
23472;SDS011;11909;52.516;13.564;2023-04-01T07:41:00;8.20;;;7.13;;
23472;SDS011;11909;52.516;13.564;2023-04-01T07:43:52;10.65;;;7.72;;
23472;SDS011;11909;52.516;13.564;2023-04-01T07:46:32;11.00;;;8.07;;
23472;SDS011;11909;52.516;13.564;2023-04-01T07:49:19;10.98;;;7.55;;
23472;SDS011;11909;52.516;13.564;2023-04-01T07:51:55;9.27;;;6.75;;
23472;SDS011;11909;52.516;13.564;2023-04-01T07:54:30;7.40;;;6.55;;
23472;SDS011;11909;52.516;13.564;2023-04-01T07:57:06;7.10;;;5.78;;
23472;SDS011;11909;52.516;13.564;2023-04-01T07:59:41;6.88;;;5.75;;
23472;SDS011;11909;52.516;13.564;2023-04-01T08:02:21;18.58;;;12.80;;
23472;SDS011;11909;52.516;13.564;2023-04-01T08:05:00;10.73;;;6.78;;
23472;SDS011;11909;52.516;13.564;2023-04-01T08:07:36;9.02;;;6.65;;
23472;SDS011;11909;52.516;13.564;2023-04-01T08:10:15;9.90;;;7.20;;
23472;SDS011;11909;52.516;13.564;2023-04-01T08:12:52;13.40;;;8.82;;
23472;SDS011;11909;52.516;13.564;2023-04-01T08:15:27;15.60;;;9.70;;
23472;SDS011;11909;52.516;13.564;2023-04-01T08:18:04;14.60;;;9.48;;
23472;SDS011;11909;52.516;13.564;2023-04-01T08:20:39;13.95;;;9.38;;
23472;SDS011;11909;52.516;13.564;2023-04-01T08:23:13;15.45;;;10.57;;
23472;SDS011;11909;52.516;13.564;2023-04-01T08:25:46;15.68;;;11.45;;
23472;SDS011;11909;52.516;13.564;2023-04-01T08:28:20;16.35;;;11.40;;
23472;SDS011;11909;52.516;13.564;2023-04-01T08:30:53;18.50;;;12.13;;
23472;SDS011;11909;52.516;13.564;2023-04-01T08:33:26;17.27;;;12.15;;
23472;SDS011;11909;52.516;13.564;2023-04-01T08:35:56;14.73;;;11.40;;
23472;SDS011;11909;52.516;13.564;2023-04-01T08:38:30;18.27;;;13.20;;
23472;SDS011;11909;52.516;13.564;2023-04-01T08:44:34;16.58;;;12.30;;
23472;SDS011;11909;52.516;13.564;2023-04-01T08:47:30;17.27;;;12.10;;
23472;SDS011;11909;52.516;13.564;2023-04-01T08:50:28;14.80;;;11.70;;
23472;SDS011;11909;52.516;13.564;2023-04-01T08:53:10;18.52;;;12.95;;
23472;SDS011;11909;52.516;13.564;2023-04-01T08:56:00;16.92;;;12.82;;
23472;SDS011;11909;52.516;13.564;2023-04-01T09:04:53;16.15;;;12.70;;
23472;SDS011;11909;52.516;13.564;2023-04-01T09:07:40;15.85;;;12.25;;
23472;SDS011;11909;52.516;13.564;2023-04-01T09:10:33;17.90;;;13.57;;
23472;SDS011;11909;52.516;13.564;2023-04-01T09:13:18;16.42;;;12.90;;
23472;SDS011;11909;52.516;13.564;2023-04-01T09:16:13;19.67;;;14.70;;
23472;SDS011;11909;52.516;13.564;2023-04-01T09:21:57;16.35;;;13.15;;
23472;SDS011;11909;52.516;13.564;2023-04-01T09:24:41;14.75;;;12.43;;
23472;SDS011;11909;52.516;13.564;2023-04-01T09:27:25;14.85;;;12.43;;
23472;SDS011;11909;52.516;13.564;2023-04-01T09:30:01;15.73;;;12.90;;
23472;SDS011;11909;52.516;13.564;2023-04-01T09:32:57;14.52;;;12.88;;
23472;SDS011;11909;52.516;13.564;2023-04-01T09:35:54;13.95;;;12.55;;
23472;SDS011;11909;52.516;13.564;2023-04-01T09:38:35;19.33;;;15.00;;
23472;SDS011;11909;52.516;13.564;2023-04-01T09:41:16;15.88;;;13.32;;
23472;SDS011;11909;52.516;13.564;2023-04-01T09:44:04;15.60;;;13.57;;
23472;SDS011;11909;52.516;13.564;2023-04-01T09:46:46;14.20;;;12.60;;
23472;SDS011;11909;52.516;13.564;2023-04-01T09:49:42;15.05;;;12.18;;
23472;SDS011;11909;52.516;13.564;2023-04-01T09:52:24;14.15;;;12.50;;
23472;SDS011;11909;52.516;13.564;2023-04-01T09:55:06;15.25;;;12.52;;
23472;SDS011;11909;52.516;13.564;2023-04-01T09:58:10;15.00;;;12.93;;
23472;SDS011;11909;52.516;13.564;2023-04-01T10:13:19;14.63;;;12.77;;
23472;SDS011;11909;52.516;13.564;2023-04-01T10:16:32;13.50;;;12.00;;
23472;SDS011;11909;52.516;13.564;2023-04-01T10:19:17;13.55;;;12.15;;
23472;SDS011;11909;52.516;13.564;2023-04-01T10:22:17;12.20;;;10.98;;
23472;SDS011;11909;52.516;13.564;2023-04-01T10:25:10;11.93;;;10.73;;
23472;SDS011;11909;52.516;13.564;2023-04-01T10:27:58;12.35;;;11.05;;
23472;SDS011;11909;52.516;13.564;2023-04-01T10:34:06;24.52;;;17.67;;
23472;SDS011;11909;52.516;13.564;2023-04-01T10:36:57;11.05;;;9.20;;
23472;SDS011;11909;52.516;13.564;2023-04-01T10:42:48;8.80;;;8.00;;
23472;SDS011;11909;52.516;13.564;2023-04-01T10:45:47;7.95;;;7.15;;
23472;SDS011;11909;52.516;13.564;2023-04-01T10:48:45;7.70;;;6.88;;
23472;SDS011;11909;52.516;13.564;2023-04-01T10:51:36;7.15;;;6.45;;
23472;SDS011;11909;52.516;13.564;2023-04-01T10:54:30;6.60;;;6.00;;
23472;SDS011;11909;52.516;13.564;2023-04-01T10:57:15;6.80;;;6.20;;
23472;SDS011;11909;52.516;13.564;2023-04-01T11:00:04;6.72;;;5.97;;
23472;SDS011;11909;52.516;13.564;2023-04-01T11:12:08;6.35;;;5.60;;
23472;SDS011;11909;52.516;13.564;2023-04-01T11:14:58;6.00;;;5.40;;
23472;SDS011;11909;52.516;13.564;2023-04-01T11:20:58;5.13;;;4.63;;
23472;SDS011;11909;52.516;13.564;2023-04-01T11:23:59;5.47;;;4.85;;
23472;SDS011;11909;52.516;13.564;2023-04-01T11:26:45;4.13;;;3.72;;
23472;SDS011;11909;52.516;13.564;2023-04-01T11:32:34;5.10;;;4.60;;
23472;SDS011;11909;52.516;13.564;2023-04-01T11:35:26;5.28;;;4.53;;
23472;SDS011;11909;52.516;13.564;2023-04-01T11:38:06;5.35;;;4.85;;
23472;SDS011;11909;52.516;13.564;2023-04-01T11:40:45;4.88;;;4.38;;
23472;SDS011;11909;52.516;13.564;2023-04-01T11:43:20;4.50;;;4.10;;
23472;SDS011;11909;52.516;13.564;2023-04-01T11:46:01;4.00;;;3.50;;
23472;SDS011;11909;52.516;13.564;2023-04-01T11:48:50;4.85;;;4.00;;
23472;SDS011;11909;52.516;13.564;2023-04-01T11:57:26;5.28;;;3.88;;
23472;SDS011;11909;52.516;13.564;2023-04-01T12:00:19;4.85;;;3.92;;
23472;SDS011;11909;52.516;13.564;2023-04-01T12:03:05;3.85;;;3.30;;
23472;SDS011;11909;52.516;13.564;2023-04-01T12:05:49;3.92;;;3.53;;
23472;SDS011;11909;52.516;13.564;2023-04-01T12:08:29;3.55;;;3.20;;
23472;SDS011;11909;52.516;13.564;2023-04-01T12:11:05;3.83;;;3.20;;
23472;SDS011;11909;52.516;13.564;2023-04-01T12:13:42;5.00;;;4.00;;
23472;SDS011;11909;52.516;13.564;2023-04-01T12:16:21;5.28;;;4.78;;
23472;SDS011;11909;52.516;13.564;2023-04-01T12:19:08;5.32;;;4.82;;
23472;SDS011;11909;52.516;13.564;2023-04-01T12:21:43;5.35;;;4.85;;
23472;SDS011;11909;52.516;13.564;2023-04-01T12:24:24;5.82;;;5.10;;
23472;SDS011;11909;52.516;13.564;2023-04-01T12:27:06;5.35;;;4.85;;
23472;SDS011;11909;52.516;13.564;2023-04-01T12:29:53;5.13;;;4.63;;
23472;SDS011;11909;52.516;13.564;2023-04-01T12:32:34;6.35;;;5.22;;
23472;SDS011;11909;52.516;13.564;2023-04-01T12:35:20;20.63;;;14.20;;
23472;SDS011;11909;52.516;13.564;2023-04-01T12:37:52;7.53;;;6.32;;
23472;SDS011;11909;52.516;13.564;2023-04-01T12:40:31;5.93;;;5.27;;
23472;SDS011;11909;52.516;13.564;2023-04-01T12:43:18;7.00;;;5.47;;
23472;SDS011;11909;52.516;13.564;2023-04-01T12:46:03;8.00;;;5.10;;
23472;SDS011;11909;52.516;13.564;2023-04-01T12:48:46;5.32;;;4.78;;
23472;SDS011;11909;52.516;13.564;2023-04-01T12:54:55;5.65;;;4.07;;
23472;SDS011;11909;52.516;13.564;2023-04-01T12:57:59;6.05;;;4.70;;
23472;SDS011;11909;52.516;13.564;2023-04-01T13:00:45;6.05;;;3.85;;
23472;SDS011;11909;52.516;13.564;2023-04-01T13:03:31;5.90;;;4.82;;
23472;SDS011;11909;52.516;13.564;2023-04-01T13:06:20;6.82;;;5.82;;
23472;SDS011;11909;52.516;13.564;2023-04-01T13:09:01;9.60;;;7.22;;
23472;SDS011;11909;52.516;13.564;2023-04-01T13:11:47;8.73;;;7.18;;
23472;SDS011;11909;52.516;13.564;2023-04-01T13:14:26;8.45;;;7.65;;
23472;SDS011;11909;52.516;13.564;2023-04-01T13:19:38;9.38;;;8.27;;
23472;SDS011;11909;52.516;13.564;2023-04-01T13:22:35;8.73;;;7.82;;
23472;SDS011;11909;52.516;13.564;2023-04-01T13:25:19;9.27;;;7.70;;
23472;SDS011;11909;52.516;13.564;2023-04-01T13:27:55;9.07;;;7.95;;
23472;SDS011;11909;52.516;13.564;2023-04-01T13:30:30;7.90;;;7.15;;
23472;SDS011;11909;52.516;13.564;2023-04-01T13:33:04;9.98;;;7.60;;
23472;SDS011;11909;52.516;13.564;2023-04-01T13:35:41;9.05;;;6.78;;
23472;SDS011;11909;52.516;13.564;2023-04-01T13:38:35;6.78;;;5.88;;
23472;SDS011;11909;52.516;13.564;2023-04-01T13:41:20;7.10;;;5.88;;
23472;SDS011;11909;52.516;13.564;2023-04-01T13:43:57;6.22;;;5.20;;
23472;SDS011;11909;52.516;13.564;2023-04-01T13:46:34;5.68;;;5.18;;
23472;SDS011;11909;52.516;13.564;2023-04-01T13:49:25;6.40;;;5.80;;
23472;SDS011;11909;52.516;13.564;2023-04-01T13:55:26;8.23;;;6.80;;
23472;SDS011;11909;52.516;13.564;2023-04-01T13:58:07;7.25;;;6.55;;
23472;SDS011;11909;52.516;13.564;2023-04-01T14:01:00;6.63;;;5.82;;
23472;SDS011;11909;52.516;13.564;2023-04-01T14:06:38;6.88;;;6.28;;
23472;SDS011;11909;52.516;13.564;2023-04-01T14:12:30;8.68;;;7.43;;
23472;SDS011;11909;52.516;13.564;2023-04-01T14:18:08;7.90;;;7.07;;
23472;SDS011;11909;52.516;13.564;2023-04-01T14:20:45;7.97;;;7.18;;
23472;SDS011;11909;52.516;13.564;2023-04-01T14:26:29;6.82;;;5.70;;
23472;SDS011;11909;52.516;13.564;2023-04-01T14:29:17;5.80;;;5.15;;
23472;SDS011;11909;52.516;13.564;2023-04-01T14:31:59;6.22;;;5.20;;
23472;SDS011;11909;52.516;13.564;2023-04-01T14:34:39;4.90;;;4.40;;
23472;SDS011;11909;52.516;13.564;2023-04-01T14:40:20;5.88;;;4.35;;
23472;SDS011;11909;52.516;13.564;2023-04-01T14:46:05;4.88;;;4.30;;
23472;SDS011;11909;52.516;13.564;2023-04-01T14:48:50;4.78;;;4.28;;
23472;SDS011;11909;52.516;13.564;2023-04-01T14:51:22;4.93;;;4.43;;
23472;SDS011;11909;52.516;13.564;2023-04-01T14:53:59;5.15;;;4.55;;
23472;SDS011;11909;52.516;13.564;2023-04-01T14:56:36;4.68;;;4.22;;
23472;SDS011;11909;52.516;13.564;2023-04-01T14:59:10;4.75;;;4.25;;
23472;SDS011;11909;52.516;13.564;2023-04-01T15:01:47;5.10;;;4.22;;
23472;SDS011;11909;52.516;13.564;2023-04-01T15:04:25;5.45;;;4.20;;
23472;SDS011;11909;52.516;13.564;2023-04-01T15:07:18;4.75;;;4.30;;
23472;SDS011;11909;52.516;13.564;2023-04-01T15:09:59;5.32;;;4.80;;
23472;SDS011;11909;52.516;13.564;2023-04-01T15:12:38;6.30;;;5.05;;
23472;SDS011;11909;52.516;13.564;2023-04-01T15:15:20;6.40;;;5.68;;
23472;SDS011;11909;52.516;13.564;2023-04-01T15:18:07;6.05;;;5.45;;
23472;SDS011;11909;52.516;13.564;2023-04-01T15:20:50;10.52;;;8.43;;
23472;SDS011;11909;52.516;13.564;2023-04-01T15:23:40;5.35;;;4.85;;
23472;SDS011;11909;52.516;13.564;2023-04-01T15:26:24;5.95;;;4.97;;
23472;SDS011;11909;52.516;13.564;2023-04-01T15:29:04;6.05;;;5.15;;
23472;SDS011;11909;52.516;13.564;2023-04-01T15:31:44;6.05;;;4.90;;
23472;SDS011;11909;52.516;13.564;2023-04-01T15:34:21;7.03;;;5.15;;
23472;SDS011;11909;52.516;13.564;2023-04-01T15:36:58;5.13;;;4.28;;
23472;SDS011;11909;52.516;13.564;2023-04-01T15:39:35;5.50;;;4.13;;
23472;SDS011;11909;52.516;13.564;2023-04-01T15:42:18;5.25;;;4.10;;
23472;SDS011;11909;52.516;13.564;2023-04-01T15:45:03;4.80;;;4.40;;
23472;SDS011;11909;52.516;13.564;2023-04-01T15:47:44;4.75;;;4.25;;
23472;SDS011;11909;52.516;13.564;2023-04-01T15:53:21;6.95;;;5.47;;
23472;SDS011;11909;52.516;13.564;2023-04-01T15:56:08;5.10;;;4.63;;
23472;SDS011;11909;52.516;13.564;2023-04-01T15:58:47;5.82;;;5.22;;
23472;SDS011;11909;52.516;13.564;2023-04-01T16:01:29;5.93;;;5.30;;
23472;SDS011;11909;52.516;13.564;2023-04-01T16:04:11;5.22;;;4.60;;
23472;SDS011;11909;52.516;13.564;2023-04-01T16:06:58;6.20;;;5.60;;
23472;SDS011;11909;52.516;13.564;2023-04-01T16:09:47;8.15;;;5.82;;
23472;SDS011;11909;52.516;13.564;2023-04-01T16:12:29;6.43;;;5.82;;
23472;SDS011;11909;52.516;13.564;2023-04-01T16:15:09;8.70;;;6.45;;
23472;SDS011;11909;52.516;13.564;2023-04-01T16:17:54;8.05;;;6.90;;
23472;SDS011;11909;52.516;13.564;2023-04-01T16:20:43;11.93;;;6.82;;
23472;SDS011;11909;52.516;13.564;2023-04-01T16:23:16;7.05;;;6.35;;
23472;SDS011;11909;52.516;13.564;2023-04-01T16:25:51;6.70;;;5.80;;
23472;SDS011;11909;52.516;13.564;2023-04-01T16:28:27;8.38;;;6.57;;
23472;SDS011;11909;52.516;13.564;2023-04-01T16:31:02;6.68;;;5.97;;
23472;SDS011;11909;52.516;13.564;2023-04-01T16:33:39;6.07;;;5.47;;
23472;SDS011;11909;52.516;13.564;2023-04-01T16:36:17;6.57;;;5.72;;
23472;SDS011;11909;52.516;13.564;2023-04-01T16:38:52;6.43;;;5.57;;
23472;SDS011;11909;52.516;13.564;2023-04-01T16:41:31;6.40;;;5.80;;
23472;SDS011;11909;52.516;13.564;2023-04-01T16:44:09;6.63;;;5.43;;
23472;SDS011;11909;52.516;13.564;2023-04-01T16:46:45;7.03;;;5.65;;
23472;SDS011;11909;52.516;13.564;2023-04-01T16:49:28;6.00;;;5.40;;
23472;SDS011;11909;52.516;13.564;2023-04-01T16:52:03;5.85;;;5.10;;
23472;SDS011;11909;52.516;13.564;2023-04-01T16:54:43;5.97;;;5.38;;
23472;SDS011;11909;52.516;13.564;2023-04-01T16:57:19;6.60;;;5.00;;
23472;SDS011;11909;52.516;13.564;2023-04-01T16:59:53;6.03;;;5.13;;
23472;SDS011;11909;52.516;13.564;2023-04-01T17:02:26;5.85;;;4.78;;